Terminal Aerodrome Forecast
Issued by NWS

Current Version | Previous Version | Graphics & Text | Print | Product List | Glossary On
Versions: 1 2 3 4 5 6 7 8 9 10 11 12 13 14 15 16
000
FTUS41 KRNK 271122
TAFLWB
TAF
KLWB 271122Z 2712/2812 24005KT P6SM BKN050
     FM271400 26008KT P6SM VCSH BKN050
      TEMPO 2720/2722 4SM TSRA OVC025CB
     FM280100 28004KT P6SM BKN040
     FM280400 VRB03KT P6SM SCT035
     FM280800 00000KT 5SM BR BKN025=

USA.gov is the U.S. government's official web portal to all federal, state and local government web resources and services.